Storm Lake, IA

3:30 AM CDT on October 01, 2016 (GMT -0500)
Storm Lake Municipal

Weather History for KSLB - April, 2014

Change the Weather History Date:

Wednesday, April 23, 2014

  Actual Average Record
Temperature  
Mean Temperature 48 °F -  
Max Temperature 53 °F 62 °F 87 °F (2009)
Min Temperature 44 °F 41 °F 24 °F (2013)
Degree Days  
Heating Degree Days 16    
Moisture  
Dew Point 38 °F    
Average Humidity 67    
Maximum Humidity 93    
Minimum Humidity 50    
Precipitation  
Precipitation 0.06 in - - ()
Sea Level Pressure  
Sea Level Pressure 29.87 in    
Wind  
Wind Speed 19 mph (SE)    
Max Wind Speed 38 mph    
Max Gust Speed 48 mph    
Visibility 10 miles    
Events      
Averages and records for this station are not official NWS values.
T = Trace of Precipitation, MM = Missing Value Source: NWS Daily Summary

Daily Weather History Graph

Daily Weather History Graph

Search for Another Location

Airport or City:

Trip Planner

Search our weather history database for the weather conditions in past years. The results will help you decide how hot, cold, wet, or windy it might be!

Date:

Astronomy

Apr. 23, 2014 Rise Set
Actual Time 6:27 AM CDT 8:12 PM CDT
Civil Twilight 5:57 AM CDT 8:42 PM CDT
Nautical Twilight 5:20 AM CDT 9:18 PM CDT
Astronomical Twilight 4:41 AM CDT 9:58 PM CDT
Moon 3:07 AM CDT (4/23) 2:14 PM CDT (4/23)
Length of Visible Light 14h 45m
Length of Day
13h 44m
Waning Crescent, 34% of the Moon is Illuminated
Apr 23
Waning Crescent
Apr 29
New
May 6
First Quarter
May 14
Full
May 21
Last Quarter

Hourly Weather History & Observations

Time (CDT) Temp. Windchill Dew Point Humidity Pressure Visibility Wind Dir Wind Speed Gust Speed Precip Events Conditions
12:15 AM 53.6 °F - 37.4 °F 54% 30.02 in - ESE 11.5 mph - N/A   Overcast
12:35 AM 53.6 °F - 37.4 °F 54% 30.01 in 10.0 mi SE 12.7 mph - N/A   Overcast
12:55 AM 51.8 °F - 37.4 °F 58% 30.01 in 10.0 mi ESE 11.5 mph - N/A   Overcast
1:15 AM 51.8 °F - 37.4 °F 58% 30.01 in 10.0 mi SE 11.5 mph - N/A   Overcast
1:35 AM 51.8 °F - 35.6 °F 54% 30.01 in 10.0 mi SE 11.5 mph - N/A   Mostly Cloudy
1:55 AM 50.0 °F - 35.6 °F 58% 30.01 in 10.0 mi SE 13.8 mph - N/A   Mostly Cloudy
2:15 AM 51.8 °F - 35.6 °F 54% 30.00 in 10.0 mi SE 13.8 mph - N/A   Overcast
2:35 AM 51.8 °F - 35.6 °F 54% 30.00 in 10.0 mi SE 12.7 mph - N/A   Overcast
2:55 AM 50.0 °F - 35.6 °F 58% 30.00 in 10.0 mi SE 15.0 mph - N/A   Overcast
3:15 AM 50.0 °F - 35.6 °F 58% 29.99 in 10.0 mi SE 15.0 mph - N/A   Overcast
3:35 AM 50.0 °F - 35.6 °F 58% 29.98 in 10.0 mi SE 16.1 mph - N/A   Mostly Cloudy
3:55 AM 50.0 °F - 35.6 °F 58% 29.98 in 10.0 mi SE 17.3 mph - N/A   Overcast
4:15 AM 50.0 °F - 35.6 °F 58% 29.98 in 10.0 mi SE 17.3 mph - N/A   Overcast
4:35 AM 48.2 °F - 35.6 °F 62% 29.97 in 10.0 mi SE 17.3 mph - N/A   Overcast
4:55 AM 48.2 °F - 35.6 °F 62% 29.97 in 10.0 mi ESE 18.4 mph - N/A   Overcast
5:15 AM 48.2 °F - 35.6 °F 62% 29.97 in 10.0 mi SE 17.3 mph 24.2 mph N/A   Overcast
5:40 AM 48.2 °F - 33.8 °F 58% 29.98 in 10.0 mi SE 15.0 mph 20.7 mph N/A   Mostly Cloudy
5:55 AM 48.2 °F - 33.8 °F 58% 29.98 in 10.0 mi SE 16.1 mph - N/A   Overcast
6:15 AM 48.2 °F - 33.8 °F 58% 29.99 in 10.0 mi SE 15.0 mph - N/A   Overcast
6:35 AM 48.2 °F - 33.8 °F 58% 29.99 in 10.0 mi SE 18.4 mph - N/A   Overcast
6:55 AM 48.2 °F - 33.8 °F 58% 29.98 in 10.0 mi SE 18.4 mph - N/A   Overcast
7:15 AM 48.2 °F - 32.0 °F 54% 29.97 in 10.0 mi SE 21.9 mph - N/A   Overcast
7:35 AM 48.2 °F - 32.0 °F 54% 29.96 in 10.0 mi ESE 25.3 mph 32.2 mph N/A   Mostly Cloudy
7:55 AM 48.2 °F - 32.0 °F 54% 29.97 in 10.0 mi SE 24.2 mph 31.1 mph N/A   Mostly Cloudy
8:15 AM 48.2 °F - 32.0 °F 54% 29.96 in 10.0 mi SE 23.0 mph 32.2 mph N/A   Overcast
8:35 AM 48.2 °F - 32.0 °F 54% 29.96 in 10.0 mi SE 20.7 mph 29.9 mph N/A   Overcast
8:55 AM 48.2 °F - 32.0 °F 54% 29.97 in 10.0 mi SE 18.4 mph 28.8 mph N/A   Overcast
9:15 AM 50.0 °F - 32.0 °F 50% 29.94 in 10.0 mi SE 23.0 mph 31.1 mph N/A   Scattered Clouds
9:35 AM 48.2 °F - 33.8 °F 58% 29.94 in 9.0 mi SE 23.0 mph 29.9 mph N/A   Partly Cloudy
9:55 AM 46.4 °F 38.1 °F 35.6 °F 66% 29.93 in 7.0 mi SE 24.2 mph 33.4 mph N/A   Mostly Cloudy
10:15 AM 46.4 °F 38.3 °F 37.4 °F 71% 29.92 in 7.0 mi SE 23.0 mph 29.9 mph N/A   Mostly Cloudy
10:35 AM 46.4 °F 38.3 °F 39.2 °F 76% 29.89 in 7.0 mi SE 23.0 mph 31.1 mph N/A   Partly Cloudy
10:55 AM 46.4 °F 38.1 °F 37.4 °F 71% 29.89 in 9.0 mi SE 24.2 mph 32.2 mph 0.01 in   Scattered Clouds
11:15 AM 48.2 °F - 37.4 °F 66% 29.90 in 10.0 mi SSE 29.9 mph 39.1 mph N/A   Overcast
11:35 AM 46.4 °F 37.4 °F 37.4 °F 71% 29.88 in 10.0 mi SE 28.8 mph 39.1 mph N/A   Mostly Cloudy
11:55 AM 46.4 °F 37.5 °F 39.2 °F 76% 29.87 in 10.0 mi SE 27.6 mph 43.7 mph N/A   Mostly Cloudy
12:35 PM 46.4 °F 37.7 °F 39.2 °F 76% 29.83 in 10.0 mi SE 26.5 mph 43.7 mph N/A   Overcast
12:55 PM 46.4 °F 37.7 °F 41.0 °F 81% 29.84 in 10.0 mi SE 26.5 mph 39.1 mph N/A   Overcast
1:15 PM 48.2 °F - 41.0 °F 76% 29.82 in 10.0 mi SE 38.0 mph 43.7 mph N/A   Scattered Clouds
1:35 PM 50.0 °F - 41.0 °F 71% 29.82 in 10.0 mi SE 31.1 mph 46.0 mph N/A   Scattered Clouds
1:55 PM 51.8 °F - 41.0 °F 67% 29.79 in 10.0 mi SE 34.5 mph 41.4 mph N/A   Partly Cloudy
2:15 PM 51.8 °F - 39.2 °F 62% 29.79 in 10.0 mi SE 32.2 mph 48.3 mph N/A   Clear
2:35 PM 51.8 °F - 39.2 °F 62% 29.79 in 10.0 mi SE 29.9 mph 44.9 mph N/A   Partly Cloudy
2:55 PM 50.0 °F - 39.2 °F 66% 29.80 in 10.0 mi SE 32.2 mph 40.3 mph N/A   Mostly Cloudy
3:15 PM 50.0 °F - 39.2 °F 66% 29.78 in 10.0 mi SE 33.4 mph 44.9 mph N/A   Partly Cloudy
3:35 PM 51.8 °F - 39.2 °F 62% 29.79 in 10.0 mi SE 31.1 mph 40.3 mph N/A   Mostly Cloudy
3:55 PM 50.0 °F - 39.2 °F 66% 29.78 in 10.0 mi SE 26.5 mph 41.4 mph N/A   Overcast
4:15 PM 50.0 °F - 39.2 °F 66% 29.77 in 10.0 mi SE 26.5 mph 40.3 mph N/A   Overcast
4:35 PM 51.8 °F - 39.2 °F 62% 29.76 in 10.0 mi SE 29.9 mph 39.1 mph N/A   Scattered Clouds
4:55 PM 50.0 °F - 39.2 °F 66% 29.75 in 10.0 mi SE 28.8 mph 38.0 mph N/A   Scattered Clouds
5:15 PM 50.0 °F - 39.2 °F 66% 29.76 in 10.0 mi SE 31.1 mph 38.0 mph N/A   Partly Cloudy
5:35 PM 48.2 °F - 39.2 °F 71% 29.76 in 10.0 mi SE 24.2 mph 39.1 mph N/A   Clear
5:55 PM 50.0 °F - 41.0 °F 71% 29.76 in 10.0 mi SE 28.8 mph 34.5 mph N/A   Scattered Clouds
6:15 PM 50.0 °F - 41.0 °F 71% 29.76 in 10.0 mi SE 24.2 mph 32.2 mph N/A   Mostly Cloudy
6:35 PM 50.0 °F - 41.0 °F 71% 29.75 in 10.0 mi SE 20.7 mph 29.9 mph N/A   Mostly Cloudy
6:55 PM 48.2 °F - 39.2 °F 71% 29.73 in 10.0 mi SE 29.9 mph 40.3 mph N/A   Scattered Clouds
7:15 PM 48.2 °F - 39.2 °F 71% 29.74 in 10.0 mi SE 26.5 mph 36.8 mph N/A   Partly Cloudy
7:35 PM 48.2 °F - 39.2 °F 71% 29.73 in 10.0 mi SE 21.9 mph 29.9 mph N/A   Mostly Cloudy
7:55 PM 48.2 °F - 39.2 °F 71% 29.73 in 10.0 mi SE 25.3 mph 31.1 mph N/A   Mostly Cloudy
8:15 PM 46.4 °F 39.0 °F 39.2 °F 76% 29.74 in 10.0 mi SE 19.6 mph - N/A   Mostly Cloudy
8:35 PM 46.4 °F 39.2 °F 39.2 °F 76% 29.74 in 10.0 mi SE 18.4 mph 26.5 mph N/A   Mostly Cloudy
8:55 PM 46.4 °F 39.0 °F 39.2 °F 76% 29.74 in 10.0 mi SE 19.6 mph - N/A   Partly Cloudy
9:15 PM 46.4 °F 38.7 °F 39.2 °F 76% 29.73 in 10.0 mi SE 20.7 mph - N/A   Clear
9:35 PM 46.4 °F 37.5 °F 41.0 °F 81% 29.70 in 10.0 mi SE 27.6 mph - N/A   Mostly Cloudy
9:55 PM 44.6 °F 37.4 °F 42.8 °F 93% 29.74 in 8.0 mi SE 16.1 mph 26.5 mph N/A   Mostly Cloudy
10:15 PM 44.6 °F 39.2 °F 42.8 °F 93% 29.76 in 9.0 mi SE 10.4 mph 21.9 mph N/A   Overcast
10:35 PM 46.4 °F 40.7 °F 44.6 °F 93% 29.76 in 9.0 mi SE 12.7 mph - N/A   Overcast
10:55 PM 46.4 °F 38.5 °F 42.8 °F 87% 29.76 in 10.0 mi SSE 21.9 mph - N/A   Overcast
11:15 PM 46.4 °F 38.7 °F 42.8 °F 87% 29.76 in 6.0 mi SSE 20.7 mph 27.6 mph N/A   Overcast
11:35 PM 46.4 °F 38.5 °F 44.6 °F 93% 29.77 in 5.0 mi SSE 21.9 mph - N/A   Mostly Cloudy
11:55 PM 46.4 °F 38.5 °F 44.6 °F 93% 29.77 in 4.0 mi SSE 21.9 mph 27.6 mph 0.05 in   Overcast